createdAt,value
2023-03-30T00:01:17.091Z,99981.00
2023-03-30T00:03:45.903Z,99983.31
2023-03-30T00:06:15.218Z,100009.97
2023-03-30T00:08:41.577Z,99995.78
2023-03-30T00:11:11.770Z,99981.91
2023-03-30T00:13:38.565Z,99967.34
2023-03-30T00:16:07.955Z,99938.81
2023-03-30T00:18:34.584Z,99911.69
2023-03-30T00:21:02.813Z,99976.78
2023-03-30T00:23:30.179Z,100002.06
2023-03-30T00:25:56.773Z,99957.88
2023-03-30T00:28:23.201Z,99992.13
2023-03-30T00:30:49.844Z,99968.25
2023-03-30T00:33:16.233Z,99964.03
2023-03-30T00:35:42.726Z,99963.13
2023-03-30T00:38:09.158Z,99921.59
2023-03-30T00:40:35.730Z,99927.28
2023-03-30T00:43:06.585Z,99946.28
2023-03-30T00:45:34.274Z,99933.09
2023-03-30T00:48:09.199Z,99961.63
2023-03-30T00:51:02.553Z,99921.41
2023-03-30T00:53:48.627Z,99908.16
2023-03-30T00:56:19.342Z,99936.66
2023-03-30T00:58:46.635Z,99880.25
2023-03-30T01:01:18.737Z,99858.09
2023-03-30T01:03:47.987Z,99877.59
2023-03-30T01:06:17.770Z,99943.72
2023-03-30T01:08:45.113Z,99929.13
2023-03-30T01:11:11.487Z,99908.63
2023-03-30T01:13:42.146Z,99943.41
2023-03-30T01:16:33.032Z,99952.88
2023-03-30T01:19:16.372Z,99951.75
2023-03-30T01:22:20.273Z,99954.06
2023-03-30T01:25:10.541Z,99931.13
2023-03-30T01:27:50.314Z,99934.13
2023-03-30T01:31:03.459Z,99949.84
2023-03-30T01:33:39.182Z,99959.66
2023-03-30T01:36:45.683Z,99927.53
2023-03-30T01:39:55.667Z,99952.88
2023-03-30T01:42:46.158Z,99952.34
2023-03-30T01:45:42.409Z,99924.56
2023-03-30T01:48:12.845Z,99909.16
2023-03-30T01:50:50.729Z,99943.75
2023-03-30T01:53:26.657Z,99910.78
2023-03-30T01:55:58.131Z,99854.78
2023-03-30T01:58:34.071Z,99812.44
2023-03-30T02:01:02.588Z,99913.09
2023-03-30T02:03:32.980Z,99918.84
2023-03-30T02:06:07.065Z,99870.00
2023-03-30T02:08:36.763Z,99914.53
2023-03-30T02:11:04.080Z,99825.69
2023-03-30T02:13:32.697Z,99903.88
2023-03-30T02:16:07.183Z,99902.16
2023-03-30T02:18:33.566Z,99907.97
2023-03-30T02:21:02.199Z,99853.97
2023-03-30T02:23:34.842Z,99901.66
2023-03-30T02:26:01.906Z,99845.78
2023-03-30T02:28:28.343Z,99884.75
2023-03-30T02:30:54.749Z,99877.56
2023-03-30T02:33:40.102Z,99909.50
2023-03-30T02:36:29.774Z,99873.22
2023-03-30T02:39:05.622Z,99849.88
2023-03-30T02:42:00.384Z,99899.78
2023-03-30T02:44:59.860Z,99876.28
2023-03-30T02:47:38.090Z,99869.94
2023-03-30T02:50:18.050Z,99858.44
2023-03-30T02:52:44.821Z,99870.81
2023-03-30T02:55:29.070Z,99878.16
2023-03-30T02:58:18.420Z,99880.25
2023-03-30T03:00:51.256Z,99866.47
2023-03-30T03:03:24.245Z,99835.34
2023-03-30T03:05:55.935Z,99852.03
2023-03-30T03:08:24.755Z,99870.00
2023-03-30T03:10:51.725Z,99882.84
2023-03-30T03:13:20.542Z,99781.00
2023-03-30T03:15:49.340Z,99817.25
2023-03-30T03:18:15.654Z,99793.25
2023-03-30T03:20:42.580Z,99885.97
2023-03-30T03:23:08.947Z,99872.69
2023-03-30T03:25:36.281Z,99757.94
2023-03-30T03:28:02.624Z,99864.94
2023-03-30T03:30:29.032Z,99798.94
2023-03-30T03:32:56.019Z,99812.13
2023-03-30T03:35:22.463Z,99857.59
2023-03-30T03:37:48.828Z,99753.75
2023-03-30T03:40:15.575Z,99853.69
2023-03-30T03:42:42.382Z,99858.59
2023-03-30T03:45:09.266Z,99856.22
2023-03-30T03:47:35.831Z,99856.31
2023-03-30T03:50:04.079Z,99851.13
2023-03-30T03:52:31.167Z,99798.00
2023-03-30T03:54:57.545Z,99816.75
2023-03-30T03:57:24.326Z,99836.50
2023-03-30T03:59:52.915Z,99832.19
2023-03-30T04:02:21.248Z,99846.13
2023-03-30T04:04:50.218Z,99832.75
2023-03-30T04:07:16.728Z,99762.81
2023-03-30T04:09:43.067Z,99850.09
2023-03-30T04:12:09.433Z,99833.78
2023-03-30T04:14:35.881Z,99808.81
2023-03-30T04:17:02.572Z,99858.59
2023-03-30T04:19:31.343Z,99784.72
2023-03-30T04:21:58.900Z,99825.41
2023-03-30T04:24:27.875Z,99836.16
2023-03-30T04:26:54.174Z,99816.03
2023-03-30T04:29:23.388Z,99821.16
2023-03-30T04:31:51.001Z,99873.50
2023-03-30T04:34:21.844Z,99801.00
2023-03-30T04:36:57.370Z,99810.78
2023-03-30T04:39:31.623Z,99845.34
2023-03-30T04:41:57.962Z,99845.16
2023-03-30T04:44:24.515Z,99848.56
2023-03-30T04:46:50.925Z,99855.00
2023-03-30T04:49:17.293Z,99834.94
2023-03-30T04:51:43.594Z,99819.47
2023-03-30T04:54:10.001Z,99835.47
2023-03-30T04:56:36.362Z,99838.25
2023-03-30T04:59:02.711Z,99855.09
2023-03-30T05:01:29.048Z,99828.13
2023-03-30T05:04:17.012Z,99855.84
2023-03-30T05:06:44.067Z,99842.28
2023-03-30T05:09:10.741Z,99825.41
2023-03-30T05:11:37.107Z,99841.69
2023-03-30T05:14:03.535Z,99852.31
2023-03-30T05:16:29.900Z,99753.75
2023-03-30T05:18:56.633Z,99784.44
2023-03-30T05:21:23.062Z,99749.31
2023-03-30T05:23:49.481Z,99849.59
2023-03-30T05:26:16.241Z,99855.31
2023-03-30T05:28:43.049Z,99833.59
2023-03-30T05:31:09.467Z,99843.47
2023-03-30T05:33:35.871Z,99839.47
2023-03-30T05:36:02.235Z,99836.22
2023-03-30T05:38:28.572Z,99843.06
2023-03-30T05:40:55.054Z,99837.66
2023-03-30T05:43:21.454Z,99827.88
2023-03-30T05:45:48.248Z,99774.53
2023-03-30T05:48:14.646Z,99855.19
2023-03-30T05:50:42.751Z,99770.94
2023-03-30T05:53:09.209Z,99777.03
2023-03-30T05:55:35.593Z,99876.66
2023-03-30T05:58:02.729Z,99784.59
2023-03-30T06:00:29.186Z,99826.41
2023-03-30T06:02:55.681Z,99852.91
2023-03-30T06:05:22.281Z,99856.94
2023-03-30T06:07:49.550Z,99819.28
2023-03-30T06:10:16.253Z,99864.00
2023-03-30T06:12:42.739Z,99801.84
2023-03-30T06:15:12.151Z,99848.09
2023-03-30T06:17:38.581Z,99868.66
2023-03-30T06:20:11.299Z,99869.44
2023-03-30T06:22:38.289Z,99878.13
2023-03-30T06:25:05.860Z,99888.81
2023-03-30T06:27:32.934Z,99878.44
2023-03-30T06:29:59.357Z,99856.16
2023-03-30T06:32:25.763Z,99902.00
2023-03-30T06:34:53.070Z,99882.00
2023-03-30T06:37:20.500Z,99865.69
2023-03-30T06:39:47.237Z,99876.41
2023-03-30T06:42:13.676Z,99884.16
2023-03-30T06:44:40.020Z,99883.28
2023-03-30T06:47:07.601Z,99866.09
2023-03-30T06:49:34.061Z,99860.97
2023-03-30T06:52:04.395Z,99912.41
2023-03-30T06:54:31.975Z,99832.44
2023-03-30T06:56:58.435Z,99900.13
2023-03-30T06:59:24.860Z,99909.94
2023-03-30T07:01:51.707Z,99917.69
2023-03-30T07:04:18.325Z,99830.44
2023-03-30T07:06:44.705Z,99887.19
2023-03-30T07:09:12.817Z,99903.16
2023-03-30T07:11:39.137Z,99934.88
2023-03-30T07:14:05.953Z,99914.22
2023-03-30T07:16:32.348Z,99934.88
2023-03-30T07:18:58.875Z,99864.56
2023-03-30T07:21:25.501Z,99925.44
2023-03-30T07:23:51.873Z,99889.97
2023-03-30T07:26:18.309Z,99923.97
2023-03-30T07:28:46.283Z,99894.25
2023-03-30T07:31:14.266Z,99860.81
2023-03-30T07:33:41.061Z,99877.03
2023-03-30T07:36:08.537Z,99943.31
2023-03-30T07:38:35.069Z,99953.13
2023-03-30T07:41:01.790Z,99957.09
2023-03-30T07:43:28.444Z,99968.63
2023-03-30T07:45:55.007Z,99865.81
2023-03-30T07:48:21.438Z,99928.41
2023-03-30T07:50:47.931Z,99976.00
2023-03-30T07:53:14.316Z,99955.75
2023-03-30T07:55:41.269Z,99952.53
2023-03-30T07:58:07.870Z,99929.22
2023-03-30T08:00:34.243Z,99973.63
2023-03-30T08:03:00.677Z,99977.63
2023-03-30T08:05:27.099Z,99939.28
2023-03-30T08:07:53.485Z,99987.06
2023-03-30T08:10:19.985Z,99898.94
2023-03-30T08:12:46.395Z,99952.94
2023-03-30T08:15:12.802Z,99946.13
2023-03-30T08:17:39.321Z,99963.91
2023-03-30T08:20:10.737Z,99965.50
2023-03-30T08:22:37.172Z,99967.59
2023-03-30T08:25:03.684Z,99978.66
2023-03-30T08:27:30.219Z,99907.66
2023-03-30T08:29:56.628Z,99886.94
2023-03-30T08:32:23.697Z,99873.44
2023-03-30T08:34:50.326Z,99977.22
2023-03-30T08:37:16.732Z,99910.38
2023-03-30T08:39:43.510Z,99962.91
2023-03-30T08:42:09.955Z,100002.63
2023-03-30T08:44:42.001Z,99979.00
2023-03-30T08:47:16.664Z,99938.50
2023-03-30T08:49:52.840Z,100001.41
2023-03-30T08:52:23.954Z,99988.78
2023-03-30T08:54:52.086Z,100031.13
2023-03-30T08:57:38.002Z,100023.75
2023-03-30T09:00:12.324Z,100038.59
2023-03-30T09:02:44.646Z,100041.22
2023-03-30T09:05:22.994Z,100046.72
2023-03-30T09:07:52.125Z,100067.44
2023-03-30T09:10:19.806Z,100027.88
2023-03-30T09:12:56.775Z,100020.72
2023-03-30T09:15:33.416Z,100058.47
2023-03-30T09:18:17.033Z,100043.34
2023-03-30T09:20:46.099Z,100031.16
2023-03-30T09:23:15.536Z,100070.25
2023-03-30T09:25:47.322Z,100040.47
2023-03-30T09:28:21.142Z,100069.47
2023-03-30T09:31:13.434Z,100088.59
2023-03-30T09:33:53.180Z,100086.81
2023-03-30T09:36:28.284Z,100103.28
2023-03-30T09:38:54.720Z,100080.13
2023-03-30T09:42:05.594Z,100114.47
2023-03-30T09:44:46.184Z,100074.25
2023-03-30T09:47:24.793Z,100115.25
2023-03-30T09:50:03.617Z,100071.78
2023-03-30T09:52:36.946Z,100091.00
2023-03-30T09:55:27.109Z,100110.41
2023-03-30T09:57:54.598Z,100121.66
2023-03-30T10:00:31.262Z,100113.38
2023-03-30T10:03:05.286Z,100096.06
2023-03-30T10:05:34.216Z,100081.69
2023-03-30T10:08:16.625Z,100062.63
2023-03-30T10:10:43.038Z,100108.13
2023-03-30T10:13:14.361Z,100090.09
2023-03-30T10:15:46.297Z,100077.13
2023-03-30T10:18:19.317Z,100118.38
2023-03-30T10:21:15.168Z,100074.88
2023-03-30T10:23:44.788Z,100082.53
2023-03-30T10:26:20.610Z,100071.88
2023-03-30T10:29:02.093Z,100068.25
2023-03-30T10:31:28.760Z,100092.78
2023-03-30T10:33:58.048Z,100096.19
2023-03-30T10:36:30.833Z,100096.38
2023-03-30T10:39:20.367Z,100071.91
2023-03-30T10:41:47.530Z,100067.66
2023-03-30T10:44:35.764Z,100090.88
2023-03-30T10:47:28.526Z,100076.06
2023-03-30T10:50:01.277Z,100094.22
2023-03-30T10:53:12.288Z,100104.41
2023-03-30T10:55:57.282Z,100082.81
2023-03-30T10:58:43.205Z,100063.34
2023-03-30T11:01:32.272Z,100096.53
2023-03-30T11:04:26.506Z,100070.28
2023-03-30T11:06:56.783Z,100068.97
2023-03-30T11:09:30.102Z,100102.06
2023-03-30T11:12:02.584Z,100057.75
2023-03-30T11:14:44.046Z,100073.94
2023-03-30T11:17:22.770Z,100086.22
2023-03-30T11:19:55.359Z,100054.81
2023-03-30T11:22:43.484Z,100089.63
2023-03-30T11:25:20.857Z,100081.91
2023-03-30T11:28:06.655Z,100102.47
2023-03-30T11:30:36.163Z,100077.13
2023-03-30T11:33:26.880Z,100105.69
2023-03-30T11:36:18.785Z,100108.28
2023-03-30T11:38:55.638Z,100073.28
2023-03-30T11:41:31.759Z,100057.66
2023-03-30T11:43:58.186Z,100038.84
2023-03-30T11:46:34.276Z,100147.75
2023-03-30T11:49:33.902Z,100148.13
2023-03-30T11:52:09.313Z,100146.13
2023-03-30T11:55:05.530Z,100012.06
2023-03-30T11:57:38.862Z,100147.25
2023-03-30T12:00:11.076Z,100147.63
2023-03-30T12:02:54.713Z,100066.75
2023-03-30T12:05:34.274Z,100158.41
2023-03-30T12:08:22.007Z,100156.78
2023-03-30T12:10:55.673Z,100098.03
2023-03-30T12:13:22.070Z,100111.31
2023-03-30T12:15:57.709Z,100123.00
2023-03-30T12:18:44.099Z,100143.38
2023-03-30T12:21:13.504Z,100131.72
2023-03-30T12:23:49.697Z,100109.38
2023-03-30T12:26:31.245Z,100095.09
2023-03-30T12:32:04.320Z,100126.53
2023-03-30T12:34:36.842Z,100108.03
2023-03-30T12:37:18.229Z,100096.13
2023-03-30T12:39:49.403Z,100127.91
2023-03-30T12:42:26.432Z,100092.91
2023-03-30T12:45:27.081Z,100116.56
2023-03-30T12:47:59.625Z,100128.22
2023-03-30T12:51:02.503Z,100118.63
2023-03-30T12:54:08.236Z,100120.38
2023-03-30T12:57:03.151Z,100103.94
2023-03-30T13:00:09.605Z,100115.53
2023-03-30T13:02:39.014Z,100116.16
2023-03-30T13:05:18.719Z,100112.72
2023-03-30T13:07:46.103Z,100082.69
2023-03-30T13:10:30.945Z,100122.63
2023-03-30T13:12:59.748Z,100117.69
2023-03-30T13:15:49.547Z,100107.84
2023-03-30T13:18:15.952Z,100122.19
2023-03-30T13:20:48.216Z,100096.03
2023-03-30T13:23:14.491Z,100109.72
2023-03-30T13:25:52.541Z,100108.75
2023-03-30T13:28:55.957Z,100100.72
2023-03-30T13:31:31.161Z,100064.00
2023-03-30T13:34:18.357Z,100047.19
2023-03-30T13:37:04.506Z,100062.84
2023-03-30T13:39:35.317Z,100076.63
2023-03-30T13:42:22.139Z,100078.75
2023-03-30T13:45:12.103Z,100074.13
2023-03-30T13:47:57.542Z,100024.19
2023-03-30T13:50:34.172Z,100084.03
2023-03-30T13:53:07.499Z,100053.94
2023-03-30T13:55:49.377Z,100043.97
2023-03-30T13:58:23.173Z,100053.47
2023-03-30T14:00:53.510Z,100122.53
2023-03-30T14:03:31.938Z,100062.63
2023-03-30T14:06:03.767Z,100050.28
2023-03-30T14:08:34.330Z,100097.47
2023-03-30T14:11:03.641Z,100044.09
2023-03-30T14:13:30.489Z,100083.19
2023-03-30T14:15:57.020Z,100087.66
2023-03-30T14:18:25.325Z,100076.84
2023-03-30T14:21:00.651Z,100059.63
2023-03-30T14:23:39.346Z,100024.72
2023-03-30T14:26:17.053Z,100081.44
2023-03-30T14:28:44.033Z,100053.56
2023-03-30T14:31:14.619Z,100079.06
2023-03-30T14:33:41.346Z,100076.34
2023-03-30T14:36:11.611Z,100050.28
2023-03-30T14:38:41.138Z,100077.56
2023-03-30T14:41:12.073Z,100058.88
2023-03-30T14:43:40.689Z,100044.38
2023-03-30T14:46:11.618Z,99940.66
2023-03-30T14:48:41.770Z,99957.22
2023-03-30T14:51:23.653Z,100035.75
2023-03-30T14:53:52.231Z,100033.69
2023-03-30T14:56:19.694Z,100074.94
2023-03-30T14:58:48.102Z,99975.59
2023-03-30T15:01:18.541Z,100026.13
2023-03-30T15:03:46.828Z,100034.53
2023-03-30T15:06:19.696Z,100104.34
2023-03-30T15:08:47.429Z,100037.81
2023-03-30T15:11:22.605Z,100097.78
2023-03-30T15:13:52.907Z,99989.72
2023-03-30T15:16:27.294Z,99908.75
2023-03-30T15:19:00.396Z,100094.47
2023-03-30T15:21:31.485Z,100064.72
2023-03-30T15:24:00.241Z,99865.97
2023-03-30T15:26:29.931Z,100095.50
2023-03-30T15:29:00.917Z,99956.19
2023-03-30T15:31:28.671Z,99939.31
2023-03-30T15:33:58.994Z,100036.69
2023-03-30T15:36:36.751Z,99896.53
2023-03-30T15:39:18.736Z,100022.19
2023-03-30T15:41:58.598Z,100104.28
2023-03-30T15:44:25.023Z,100080.75
2023-03-30T15:46:56.141Z,100077.47
2023-03-30T15:49:30.681Z,100025.34
2023-03-30T15:52:01.923Z,100013.41
2023-03-30T15:54:34.481Z,99988.03
2023-03-30T15:57:10.983Z,100068.16
2023-03-30T15:59:43.283Z,100050.28
2023-03-30T16:02:37.589Z,99958.81
2023-03-30T16:05:07.684Z,100072.97
2023-03-30T16:07:36.014Z,99966.41
2023-03-30T16:10:02.400Z,99893.63
2023-03-30T16:12:30.980Z,100064.22
2023-03-30T16:14:58.147Z,100071.41
2023-03-30T16:17:24.628Z,100060.38
2023-03-30T16:19:51.085Z,100041.06
2023-03-30T16:22:17.512Z,99954.03
2023-03-30T16:24:43.989Z,100054.78
2023-03-30T16:27:11.838Z,100086.06
2023-03-30T16:29:38.438Z,100040.22
2023-03-30T16:32:05.376Z,100077.13
2023-03-30T16:34:31.914Z,100074.06
2023-03-30T16:36:58.310Z,100000.31
2023-03-30T16:39:27.746Z,100100.34
2023-03-30T16:41:55.462Z,99963.03
2023-03-30T16:44:23.938Z,100112.41
2023-03-30T16:46:51.535Z,100102.66
2023-03-30T16:49:23.268Z,100089.97
2023-03-30T16:51:51.338Z,100091.09
2023-03-30T16:54:30.525Z,100096.09
2023-03-30T16:56:58.204Z,100080.13
2023-03-30T16:59:26.795Z,100103.31
2023-03-30T17:01:53.211Z,100059.78
2023-03-30T17:04:19.791Z,100082.88
2023-03-30T17:06:46.280Z,100070.66
2023-03-30T17:09:16.916Z,99985.25
2023-03-30T17:11:44.237Z,100041.56
2023-03-30T17:14:11.108Z,100088.69
2023-03-30T17:16:37.519Z,100093.81
2023-03-30T17:19:04.605Z,100105.44
2023-03-30T17:21:31.321Z,100083.28
2023-03-30T17:23:57.838Z,100049.47
2023-03-30T17:26:24.412Z,100009.28
2023-03-30T17:28:52.119Z,100067.91
2023-03-30T17:31:20.951Z,100008.16
2023-03-30T17:33:48.349Z,100045.00
2023-03-30T17:36:20.506Z,100099.34
2023-03-30T17:38:47.540Z,100075.44
2023-03-30T17:41:15.546Z,100110.28
2023-03-30T17:43:43.315Z,100015.75
2023-03-30T17:46:12.985Z,99980.09
2023-03-30T17:48:39.467Z,99956.38
2023-03-30T17:51:06.379Z,100091.81
2023-03-30T17:53:33.662Z,100080.56
2023-03-30T17:56:00.622Z,100081.19
2023-03-30T17:58:32.652Z,100071.88
2023-03-30T18:01:00.896Z,100102.66
2023-03-30T18:03:29.304Z,100095.53
2023-03-30T18:05:57.669Z,100041.84
2023-03-30T18:08:25.579Z,100066.19
2023-03-30T18:10:53.993Z,100009.84
2023-03-30T18:13:21.569Z,100065.78
2023-03-30T18:15:50.360Z,100017.81
2023-03-30T18:18:22.674Z,100091.03
2023-03-30T18:20:50.570Z,100060.22
2023-03-30T18:23:17.231Z,100049.97
2023-03-30T18:25:43.792Z,100095.41
2023-03-30T18:28:24.935Z,100092.81
2023-03-30T18:30:57.476Z,100044.28
2023-03-30T18:33:24.767Z,100100.41
2023-03-30T18:35:52.490Z,100086.56
2023-03-30T18:38:20.636Z,100097.91
2023-03-30T18:40:53.453Z,100094.13
2023-03-30T18:43:19.818Z,100078.00
2023-03-30T18:45:48.465Z,100039.72
2023-03-30T18:48:17.934Z,100082.41
2023-03-30T18:50:46.269Z,100067.13
2023-03-30T18:53:18.656Z,100026.59
2023-03-30T18:55:47.535Z,100007.84
2023-03-30T18:58:16.669Z,100071.03
2023-03-30T19:00:43.159Z,99960.94
2023-03-30T19:03:10.602Z,100099.53
2023-03-30T19:05:39.030Z,100041.63
2023-03-30T19:08:05.547Z,100099.56
2023-03-30T19:10:36.160Z,100035.44
2023-03-30T19:13:02.528Z,100077.44
2023-03-30T19:15:33.916Z,100113.19
2023-03-30T19:18:01.610Z,100100.50
2023-03-30T19:20:30.339Z,100091.66
2023-03-30T19:22:56.759Z,100005.06
2023-03-30T19:25:25.766Z,100105.63
2023-03-30T19:28:02.664Z,100085.41
2023-03-30T19:30:32.335Z,100092.78
2023-03-30T19:33:02.129Z,100085.50
2023-03-30T19:35:29.451Z,100049.84
2023-03-30T19:37:56.297Z,100023.06
2023-03-30T19:40:23.715Z,100037.19
2023-03-30T19:42:50.715Z,100088.50
2023-03-30T19:45:19.548Z,100069.59
2023-03-30T19:47:46.052Z,99992.28
2023-03-30T19:50:17.714Z,100078.41
2023-03-30T19:52:48.389Z,100043.34
2023-03-30T19:55:14.791Z,100019.28
2023-03-30T19:57:41.176Z,100080.94
2023-03-30T20:00:12.746Z,100018.50
2023-03-30T20:02:40.050Z,100026.28
2023-03-30T20:05:09.909Z,100064.63
2023-03-30T20:07:37.505Z,100085.28
2023-03-30T20:10:06.249Z,100067.53
2023-03-30T20:12:33.134Z,100064.84
2023-03-30T20:15:00.541Z,100060.13
2023-03-30T20:17:29.858Z,100072.88
2023-03-30T20:19:58.018Z,100007.66
2023-03-30T20:22:25.266Z,100038.59
2023-03-30T20:24:51.686Z,100051.44
2023-03-30T20:27:18.030Z,100043.13
2023-03-30T20:29:44.388Z,100007.44
2023-03-30T20:32:10.833Z,100024.13
2023-03-30T20:34:37.168Z,100044.25
2023-03-30T20:37:03.514Z,99977.63
2023-03-30T20:39:29.890Z,100004.69
2023-03-30T20:42:01.928Z,100041.28
2023-03-30T20:44:31.686Z,100054.84
2023-03-30T20:46:59.195Z,100033.88
2023-03-30T20:49:26.387Z,99933.00
2023-03-30T20:51:53.177Z,100039.41
2023-03-30T20:54:20.588Z,99990.88
2023-03-30T20:56:47.087Z,100006.13
2023-03-30T20:59:13.478Z,100023.22
2023-03-30T21:01:43.346Z,100052.81
2023-03-30T21:04:09.805Z,100014.25
2023-03-30T21:06:36.617Z,100012.88
2023-03-30T21:09:05.813Z,100023.22
2023-03-30T21:11:38.570Z,99982.31
2023-03-30T21:14:06.549Z,100039.03
2023-03-30T21:16:33.468Z,100039.47
2023-03-30T21:18:59.887Z,100025.84
2023-03-30T21:21:26.973Z,100018.19
2023-03-30T21:23:53.295Z,100016.00
2023-03-30T21:26:19.668Z,99982.47
2023-03-30T21:28:46.111Z,100011.25
2023-03-30T21:31:14.224Z,99973.69
2023-03-30T21:33:41.201Z,99987.75
2023-03-30T21:36:08.307Z,100013.22
2023-03-30T21:38:35.612Z,99997.03
2023-03-30T21:41:16.878Z,100009.25
2023-03-30T21:43:48.326Z,100012.81
2023-03-30T21:46:18.104Z,99986.94
2023-03-30T21:48:45.816Z,100013.19
2023-03-30T21:51:20.851Z,99998.31
2023-03-30T21:53:50.573Z,100000.31
2023-03-30T21:56:19.076Z,99887.50
2023-03-30T21:58:45.752Z,99964.97
2023-03-30T22:01:13.041Z,99965.63
2023-03-30T22:03:42.041Z,99978.69
2023-03-30T22:06:10.510Z,99953.69
2023-03-30T22:08:37.472Z,99992.34
2023-03-30T22:11:07.449Z,99989.94
2023-03-30T22:13:34.138Z,99921.38
2023-03-30T22:16:00.679Z,99983.31
2023-03-30T22:18:27.946Z,99982.84
2023-03-30T22:20:57.724Z,99988.38
2023-03-30T22:23:24.147Z,99876.38
2023-03-30T22:25:51.238Z,99951.72
2023-03-30T22:28:17.701Z,99914.72
2023-03-30T22:30:44.690Z,99925.06
2023-03-30T22:33:12.024Z,99946.19
2023-03-30T22:35:40.955Z,99963.34
2023-03-30T22:38:08.434Z,99867.97
2023-03-30T22:40:35.918Z,99922.13
2023-03-30T22:43:03.297Z,99942.66
2023-03-30T22:45:30.547Z,99833.94
2023-03-30T22:47:58.326Z,99829.78
2023-03-30T22:50:26.269Z,99935.94
2023-03-30T22:52:52.703Z,99918.09
2023-03-30T22:55:19.741Z,99873.66
2023-03-30T22:57:46.905Z,99931.88
2023-03-30T23:00:16.999Z,99932.94
2023-03-30T23:02:43.961Z,99925.59
2023-03-30T23:05:14.358Z,99915.34
2023-03-30T23:07:44.197Z,99878.44
2023-03-30T23:10:14.646Z,99909.06
2023-03-30T23:12:42.096Z,99900.06
2023-03-30T23:15:10.508Z,99869.34
2023-03-30T23:17:37.215Z,99901.63
2023-03-30T23:20:05.351Z,99832.41
2023-03-30T23:22:31.860Z,99867.38
2023-03-30T23:24:58.751Z,99834.53
2023-03-30T23:27:25.469Z,99845.19
2023-03-30T23:29:52.737Z,99783.09
2023-03-30T23:32:19.439Z,99801.88
2023-03-30T23:34:46.490Z,99854.75
2023-03-30T23:37:12.950Z,99723.28
2023-03-30T23:39:39.378Z,99840.97
2023-03-30T23:42:06.932Z,99751.03
2023-03-30T23:44:33.335Z,99819.09
2023-03-30T23:47:00.621Z,99816.28
2023-03-30T23:49:27.186Z,99815.72
2023-03-30T23:51:53.556Z,99815.47
2023-03-30T23:54:19.987Z,99700.06
2023-03-30T23:56:46.957Z,99822.03
2023-03-30T23:59:13.495Z,99808.91
